Whelen Springs, Arkansas
Current Conditions -  °F | °C
As of 6:56 AM on Thursday 23 Oct 2014 (Local Time) from KADF Reporting Station
Clear Clear  
Wind Chill: 51°   Ceiling: Unl
Heat Index: 51°   Visibility: 10mi
Dew Point: 47°   Wind: 5mph
Humidity: 86%   Direction: 40°NE
Pressure: 30.18"   Gusts: NA
Location:  33.83°N, 93.13°W
Report Text: KADF 231156Z AUTO 04004KT 10SM CLR 11/08 A3018 RMK AO2 53004 60000 T01050083 10105 20094 SLP234
Loading
Personal Weather Stations






























Interactive Weather Map
Tropical Storm Tracking
New forecast layout! Learn more

10-Day Weather Forecast

Advertisements
Track Severe Weather on mobile